• Join FlightAware (Why Join?)
  • Login
  • US Flag 
11:47PM EDT


 

Airport Tracker/Info


-or-


 

Live Flight TrackerFlight Track Log ✈ N741RA ✈ 27-Jul-2013 ✈ KDED - KFPR

Flight Track Log - Related Links

Times and Time Zones

All times are in EDT time to prevent confusion due to time zone crossing. See the N741RA flight status page for this flight to view local times or setup timezone preferences in your user account.

Time Position Orientation Groundspeed Altitude Reporting Facility
EDT Latitude Longitude Course Direction KTS MPH feet Rate Location/Type
01:44PM 29.0558 -81.1039 110° East 97 112 1,500  Level Jacksonville Center
01:44PM 29.0492 -81.0828 110° East 96 110 1,600  Climbing Jacksonville Center
01:45PM 29.0322 -81.0569 127° Southeast 102 117 1,600  Level Jacksonville Center
01:46PM 29.0172 -81.0311 124° Southeast 100 115 1,600 -60 Level Jacksonville Center
01:47PM 29.0083 -81.0028 110° East 99 114 1,500 -120 Descending Jacksonville Center
01:48PM 28.9953 -80.9744 118° Southeast 88 101 1,400  Descending Jacksonville Center
01:50PM 28.9783 -80.9486 127° Southeast 86 99 1,600 360 Climbing Jacksonville Center
01:51PM 28.9592 -80.9325 144° Southeast 84 97 2,300 540 Climbing Jacksonville Center
01:51PM 28.9425 -80.9208 149° Southeast 89 102 2,600 420 Climbing Jacksonville Center
01:53PM 28.9000 -80.8833 142° Southeast 98 113 3,600 300 Climbing Orlando TRACON
01:54PM 28.8667 -80.8833 180° South 96 110 3,500  Descending Orlando TRACON
01:55PM 28.8500 -80.8667 139° Southeast 97 112 3,600  Climbing Orlando TRACON
01:57PM 28.8167 -80.8667 180° South 96 110 3,600  Level Orlando TRACON
01:57PM 28.8000 -80.8500 139° Southeast 92 106 3,600  Level Orlando TRACON
01:58PM 28.7667 -80.8500 180° South 98 113 3,600  Level Orlando TRACON
01:59PM 28.7500 -80.8500 180° South 93 107 3,600 -60 Level Orlando TRACON
02:00PM 28.7167 -80.8333 156° South 99 114 3,500  Descending Orlando TRACON
02:01PM 28.7000 -80.8333 180° South 101 116 3,600  Climbing Orlando TRACON
02:02PM 28.6667 -80.8333 180° South 96 110 3,600 -60 Level Orlando TRACON
02:03PM 28.6333 -80.8167 156° South 98 113 3,500 -60 Descending Orlando TRACON
02:04PM 28.6167 -80.8000 139° Southeast 102 117 3,500  Level Orlando TRACON
02:05PM 28.6000 -80.7833 139° Southeast 90 104 3,500  Level Orlando TRACON
02:06PM 28.5833 -80.7833 180° South 92 106 3,600  Climbing Orlando TRACON
02:07PM 28.5500 -80.7667 156° South 104 120 3,600 -60 Level Orlando TRACON
02:08PM 28.5167 -80.7667 180° South 97 112 3,500  Descending Orlando TRACON
02:09PM 28.5000 -80.7667 180° South 97 112 3,600  Climbing Orlando TRACON
02:10PM 28.4667 -80.7667 180° South 101 116 3,600  Level Orlando TRACON
02:11PM 28.4333 -80.7667 180° South 105 121 3,600 -60 Level Orlando TRACON
02:12PM 28.4167 -80.7500 139° Southeast 99 114 3,500  Descending Orlando TRACON
02:13PM 28.3833 -80.7500 180° South 100 115 3,600  Climbing Orlando TRACON
02:14PM 28.3667 -80.7333 139° Southeast 99 114 3,600  Level Orlando TRACON
02:15PM 28.3333 -80.7167 156° South 95 109 3,600  Level Orlando TRACON
02:16PM 28.3000 -80.7167 180° South 97 112 3,600 -60 Level Orlando TRACON
02:17PM 28.2833 -80.7000 139° Southeast 99 114 3,500 -120 Descending Orlando TRACON
02:18PM 28.2500 -80.7000 180° South 100 115 3,400 -60 Descending Orlando TRACON
02:20PM 28.2333 -80.6833 139° Southeast 96 110 3,400  Level Orlando TRACON
02:20PM 28.2000 -80.6833 180° South 91 105 3,500  Climbing Orlando TRACON
02:21PM 28.1833 -80.6667 139° Southeast 97 112 3,500 -60 Level Orlando TRACON
02:23PM 28.1500 -80.6500 156° South 100 115 3,400 -60 Descending Orlando TRACON
02:23PM 28.1333 -80.6500 180° South 97 112 3,400  Level Orlando TRACON
02:24PM 28.1000 -80.6333 156° South 98 113 3,400 -60 Level Orlando TRACON
02:26PM 28.0833 -80.6167 139° Southeast 99 114 3,300  Descending Orlando TRACON
02:27PM 28.0500 -80.6167 180° South 91 105 3,500 60 Climbing Orlando TRACON
02:28PM 28.0167 -80.6000 156° South 100 115 3,500  Level Orlando TRACON
02:28PM 28.0094 -80.6103 231° Southwest 96 110 3,500 -120 Level Miami Center
02:29PM 27.9803 -80.6117 182° South 101 116 3,400 -120 Descending Miami Center
02:30PM 27.9533 -80.6058 169° South 101 116 3,300  Descending Miami Center
02:31PM 27.9306 -80.5958 159° South 101 116 3,500 60 Climbing Miami Center
02:32PM 27.9078 -80.5903 168° South 101 116 3,500 -60 Level Miami Center
02:33PM 27.8767 -80.5800 164° South 106 122 3,400 -120 Descending Miami Center
02:34PM 27.8519 -80.5697 160° South 106 122 3,300  Descending Miami Center
02:35PM 27.8294 -80.5572 154° Southeast 106 122 3,500 120 Climbing Miami Center
02:36PM 27.8086 -80.5472 157° South 95 109 3,600 60 Climbing Miami Center